Crane — ZR3519 — position and weather

sailwx.info

Track history (hours):
 
Tides and Currents Weather Stations Pressure Air Temp Water Temp Dewpoint Dewpoint Depression Visibility Wind Speed Wind Dir Waves Ship Positions

Crane

Last reported at 2015-Jul-30 15:33 UTC. Time now 2015-Aug-02 16:27 UTC.
Position S 29°53' E 031°00'.

MMSI: 601085000.

Date/timePositionNaut miles runAvg speedWind from/ knotsBaromVisibWave heightAir tempDewpointWater temp
2015-Jul-30 15:33S 29°53' E 031°00'0 0.0
2015-Jul-30 14:33S 29°53' E 031°00'0 0.0
2015-Jul-30 13:33S 29°53' E 031°00'0 0.0
2015-Jul-30 12:33S 29°53' E 031°00'0 0.0
2015-Jul-30 11:33S 29°53' E 031°00'0 0.0
2015-Jul-30 10:33S 29°53' E 031°00'0 0.0
2015-Jul-30 09:33S 29°53' E 031°00'0 0.0
2015-Jul-30 08:33S 29°53' E 031°00'0 0.4
2015-Jul-30 07:33S 29°53' E 031°00'4 3.6
2015-Jul-30 06:33S 29°52' E 031°04'1 0.5
2015-Jul-30 05:33S 29°52' E 031°05'2 1.6
2015-Jul-30 04:33S 29°53' E 031°03'2 2.0
2015-Jul-30 03:33S 29°52' E 031°01'0 0.0
2015-Jul-29 15:33S 29°52' E 031°01'3 3.4
2015-Jul-29 14:33S 29°52' E 031°05'1 0.8
2015-Jul-29 13:34S 29°52' E 031°04'3 2.9
2015-Jul-29 12:33S 29°52' E 031°01'0 0.0
2015-Jul-29 11:34S 29°52' E 031°01'0 0.0
2015-Jul-29 10:33S 29°52' E 031°01'0 0.0
2015-Jul-29 09:33S 29°52' E 031°01'0 0.0
2015-Jul-29 08:33S 29°52' E 031°01'0 0.1
2015-Jul-29 07:33S 29°52' E 031°01'4 3.5
2015-Jul-29 06:33S 29°52' E 031°05'2 1.6
2015-Jul-29 05:33S 29°53' E 031°06'3 2.9
2015-Jul-29 04:33S 29°52' E 031°03'2 2.3
2015-Jul-29 03:33S 29°52' E 031°01'0 0.0
2015-Jul-28 15:11S 29°52' E 031°01'2 3.3
2015-Jul-28 14:33S 29°53' E 031°03'1 1.2
2015-Jul-28 13:33S 29°52' E 031°04'3 3.0
2015-Jul-28 12:33S 29°52' E 031°01'0 0.0
2015-Jul-28 11:33S 29°52' E 031°01'0 0.0
2015-Jul-28 10:33S 29°52' E 031°01'0 0.0
2015-Jul-28 09:33S 29°52' E 031°01'0 0.0
2015-Jul-28 08:33S 29°52' E 031°01'1 0.7
2015-Jul-28 07:32S 29°52' E 031°02'3 2.9
2015-Jul-28 06:33S 29°52' E 031°05'2 2.2
2015-Jul-28 05:33S 29°54' E 031°07'4 4.3
2015-Jul-28 04:33S 29°52' E 031°02'1 0.1
2015-Jul-27 15:33S 29°52' E 031°01'0 0.0
2015-Jul-27 14:33S 29°52' E 031°01'4 4.1
2015-Jul-27 13:33S 29°53' E 031°05'2 2.4
2015-Jul-27 12:33S 29°53' E 031°03'2 1.7
2015-Jul-27 11:33S 29°52' E 031°01'0 0.0
2015-Jul-27 10:34S 29°52' E 031°01'0 0.0
2015-Jul-27 09:33S 29°52' E 031°01'0 0.0
2015-Jul-27 08:33S 29°52' E 031°01'0 0.0
2015-Jul-27 07:33S 29°52' E 031°01'4 4.4
2015-Jul-27 06:34S 29°53' E 031°06'2 1.6
2015-Jul-27 05:33S 29°53' E 031°07'4 4.4
2015-Jul-27 04:33S 29°53' E 031°02'1 0.0
2015-Jul-25 13:25S 29°52' E 031°01'0 0.0
2015-Jul-25 12:33S 29°52' E 031°01'0 0.0
2015-Jul-25 10:10S 29°52' E 031°01'0 0.0
2015-Jul-25 09:33S 29°52' E 031°01'0 0.0
2015-Jul-25 08:33S 29°52' E 031°01'0 0.0
2015-Jul-25 07:33S 29°52' E 031°01'0 0.1
2015-Jul-25 06:33S 29°52' E 031°01'3 3.3
2015-Jul-25 05:33S 29°52' E 031°05'1 1.2
2015-Jul-25 04:33S 29°52' E 031°03'2 0.1
2015-Jul-24 10:05S 29°52' E 031°01'0 0.0
2015-Jul-24 09:33S 29°52' E 031°01'0 0.0
2015-Jul-24 08:33S 29°52' E 031°01'3 3.0
2015-Jul-24 07:33S 29°51' E 031°04'3 3.4
2015-Jul-24 06:34S 29°53' E 031°01'  
2015-Jul-21 19:13S 29°52' E 031°01'0 0.0
2015-Jul-21 18:33S 29°52' E 031°01'0 0.0
2015-Jul-21 17:33S 29°52' E 031°01'0 0.0
2015-Jul-21 16:33S 29°52' E 031°01'0 0.0
2015-Jul-21 15:33S 29°52' E 031°01'0 0.0
2015-Jul-21 14:33S 29°52' E 031°01'0 0.0
2015-Jul-21 13:33S 29°52' E 031°01'0 0.0
2015-Jul-21 12:33S 29°52' E 031°01'0 0.0
2015-Jul-21 11:33S 29°52' E 031°01'0 0.0
2015-Jul-21 10:33S 29°52' E 031°01'0 0.0
2015-Jul-21 09:33S 29°52' E 031°01'1 1.2
2015-Jul-21 08:33S 29°53' E 031°00'0 0.0
2015-Jul-21 07:33S 29°53' E 031°00'1 1.5
2015-Jul-21 06:33S 29°52' E 031°01'5 4.7
2015-Jul-21 05:33S 29°54' E 031°06'4 3.6
2015-Jul-21 04:33S 29°53' E 031°02'2 0.4
2015-Jul-21 00:17S 29°52' E 031°01'0 0.0
2015-Jul-20 23:33S 29°52' E 031°01'0 0.0
2015-Jul-20 22:33S 29°52' E 031°01'0 0.0
2015-Jul-20 21:33S 29°52' E 031°01'0 0.0
2015-Jul-20 20:33S 29°52' E 031°01'0 0.0
2015-Jul-20 19:33S 29°52' E 031°01'0 0.0
2015-Jul-20 18:33S 29°52' E 031°01'0 0.0
2015-Jul-20 17:33S 29°52' E 031°01'0 0.0
2015-Jul-20 16:33S 29°52' E 031°01'0 0.0
2015-Jul-20 15:33S 29°52' E 031°01'  
Track history (hours):
 
Tides and Currents Weather Stations Pressure Air Temp Water Temp Dewpoint Dewpoint Depression Visibility Wind Speed Wind Dir Waves Ship Positions

Crane

Last reported at 2015-Jul-30 15:33 UTC. Time now 2015-Aug-02 16:27 UTC.
Position S 29°53' E 031°00'.

MMSI: 601085000.

Date/timePositionNaut miles runAvg speedWind from/ knotsBaromVisibWave heightAir tempDewpointWater temp
2015-Jul-30 15:33S 29°53' E 031°00'0 0.0
2015-Jul-30 14:33S 29°53' E 031°00'0 0.0
2015-Jul-30 13:33S 29°53' E 031°00'0 0.0
2015-Jul-30 12:33S 29°53' E 031°00'0 0.0
2015-Jul-30 11:33S 29°53' E 031°00'0 0.0
2015-Jul-30 10:33S 29°53' E 031°00'0 0.0
2015-Jul-30 09:33S 29°53' E 031°00'0 0.0
2015-Jul-30 08:33S 29°53' E 031°00'0 0.4
2015-Jul-30 07:33S 29°53' E 031°00'4 3.6
2015-Jul-30 06:33S 29°52' E 031°04'1 0.5
2015-Jul-30 05:33S 29°52' E 031°05'2 1.6
2015-Jul-30 04:33S 29°53' E 031°03'2 2.0
2015-Jul-30 03:33S 29°52' E 031°01'0 0.0
2015-Jul-29 15:33S 29°52' E 031°01'3 3.4
2015-Jul-29 14:33S 29°52' E 031°05'1 0.8
2015-Jul-29 13:34S 29°52' E 031°04'3 2.9
2015-Jul-29 12:33S 29°52' E 031°01'0 0.0
2015-Jul-29 11:34S 29°52' E 031°01'0 0.0
2015-Jul-29 10:33S 29°52' E 031°01'0 0.0
2015-Jul-29 09:33S 29°52' E 031°01'0 0.0
2015-Jul-29 08:33S 29°52' E 031°01'0 0.1
2015-Jul-29 07:33S 29°52' E 031°01'4 3.5
2015-Jul-29 06:33S 29°52' E 031°05'2 1.6
2015-Jul-29 05:33S 29°53' E 031°06'3 2.9
2015-Jul-29 04:33S 29°52' E 031°03'2 2.3
2015-Jul-29 03:33S 29°52' E 031°01'0 0.0
2015-Jul-28 15:11S 29°52' E 031°01'2 3.3
2015-Jul-28 14:33S 29°53' E 031°03'1 1.2
2015-Jul-28 13:33S 29°52' E 031°04'3 3.0
2015-Jul-28 12:33S 29°52' E 031°01'0 0.0
2015-Jul-28 11:33S 29°52' E 031°01'0 0.0
2015-Jul-28 10:33S 29°52' E 031°01'0 0.0
2015-Jul-28 09:33S 29°52' E 031°01'0 0.0
2015-Jul-28 08:33S 29°52' E 031°01'1 0.7
2015-Jul-28 07:32S 29°52' E 031°02'3 2.9
2015-Jul-28 06:33S 29°52' E 031°05'2 2.2
2015-Jul-28 05:33S 29°54' E 031°07'4 4.3
2015-Jul-28 04:33S 29°52' E 031°02'1 0.1
2015-Jul-27 15:33S 29°52' E 031°01'0 0.0
2015-Jul-27 14:33S 29°52' E 031°01'4 4.1
2015-Jul-27 13:33S 29°53' E 031°05'2 2.4
2015-Jul-27 12:33S 29°53' E 031°03'2 1.7
2015-Jul-27 11:33S 29°52' E 031°01'0 0.0
2015-Jul-27 10:34S 29°52' E 031°01'0 0.0
2015-Jul-27 09:33S 29°52' E 031°01'0 0.0
2015-Jul-27 08:33S 29°52' E 031°01'0 0.0
2015-Jul-27 07:33S 29°52' E 031°01'4 4.4
2015-Jul-27 06:34S 29°53' E 031°06'2 1.6
2015-Jul-27 05:33S 29°53' E 031°07'4 4.4
2015-Jul-27 04:33S 29°53' E 031°02'1 0.0
2015-Jul-25 13:25S 29°52' E 031°01'0 0.0
2015-Jul-25 12:33S 29°52' E 031°01'0 0.0
2015-Jul-25 10:10S 29°52' E 031°01'0 0.0
2015-Jul-25 09:33S 29°52' E 031°01'0 0.0
2015-Jul-25 08:33S 29°52' E 031°01'0 0.0
2015-Jul-25 07:33S 29°52' E 031°01'0 0.1
2015-Jul-25 06:33S 29°52' E 031°01'3 3.3
2015-Jul-25 05:33S 29°52' E 031°05'1 1.2
2015-Jul-25 04:33S 29°52' E 031°03'2 0.1
2015-Jul-24 10:05S 29°52' E 031°01'0 0.0
2015-Jul-24 09:33S 29°52' E 031°01'0 0.0
2015-Jul-24 08:33S 29°52' E 031°01'3 3.0
2015-Jul-24 07:33S 29°51' E 031°04'3 3.4
2015-Jul-24 06:34S 29°53' E 031°01'  
2015-Jul-21 19:13S 29°52' E 031°01'0 0.0
2015-Jul-21 18:33S 29°52' E 031°01'0 0.0
2015-Jul-21 17:33S 29°52' E 031°01'0 0.0
2015-Jul-21 16:33S 29°52' E 031°01'0 0.0
2015-Jul-21 15:33S 29°52' E 031°01'0 0.0
2015-Jul-21 14:33S 29°52' E 031°01'0 0.0
2015-Jul-21 13:33S 29°52' E 031°01'0 0.0
2015-Jul-21 12:33S 29°52' E 031°01'0 0.0
2015-Jul-21 11:33S 29°52' E 031°01'0 0.0
2015-Jul-21 10:33S 29°52' E 031°01'0 0.0
2015-Jul-21 09:33S 29°52' E 031°01'1 1.2
2015-Jul-21 08:33S 29°53' E 031°00'0 0.0
2015-Jul-21 07:33S 29°53' E 031°00'1 1.5
2015-Jul-21 06:33S 29°52' E 031°01'5 4.7
2015-Jul-21 05:33S 29°54' E 031°06'4 3.6
2015-Jul-21 04:33S 29°53' E 031°02'2 0.4
2015-Jul-21 00:17S 29°52' E 031°01'0 0.0
2015-Jul-20 23:33S 29°52' E 031°01'0 0.0
2015-Jul-20 22:33S 29°52' E 031°01'0 0.0
2015-Jul-20 21:33S 29°52' E 031°01'0 0.0
2015-Jul-20 20:33S 29°52' E 031°01'0 0.0
2015-Jul-20 19:33S 29°52' E 031°01'0 0.0
2015-Jul-20 18:33S 29°52' E 031°01'0 0.0
2015-Jul-20 17:33S 29°52' E 031°01'0 0.0
2015-Jul-20 16:33S 29°52' E 031°01'0 0.0
2015-Jul-20 15:33S 29°52' E 031°01'  

Dump ship's entire track history